createdAt,value
2018-07-16T00:12:38.990Z,8.13
2018-07-16T00:15:08.370Z,8.17
2018-07-16T00:17:37.612Z,9.40
2018-07-16T00:20:06.383Z,8.60
2018-07-16T00:22:36.394Z,7.90
2018-07-16T00:25:04.859Z,7.97
2018-07-16T00:27:35.088Z,8.10
2018-07-16T00:30:03.740Z,8.67
2018-07-16T00:32:32.091Z,7.97
2018-07-16T00:35:00.456Z,8.03
2018-07-16T00:37:28.740Z,7.43
2018-07-16T00:39:57.120Z,8.27
2018-07-16T00:42:25.514Z,8.83
2018-07-16T00:44:53.975Z,8.10
2018-07-16T00:47:22.331Z,8.07
2018-07-16T00:49:50.655Z,7.67
2018-07-16T00:52:19.076Z,8.83
2018-07-16T00:54:47.308Z,8.30
2018-07-16T00:57:15.828Z,7.47
2018-07-16T00:59:44.299Z,8.00
2018-07-16T01:02:12.788Z,7.80
2018-07-16T01:04:40.932Z,7.87
2018-07-16T01:07:09.423Z,7.47
2018-07-16T01:09:37.802Z,8.53
2018-07-16T01:12:06.332Z,9.10
2018-07-16T01:14:34.683Z,9.33
2018-07-16T01:17:03.215Z,8.60
2018-07-16T01:19:31.551Z,8.50
2018-07-16T01:22:00.002Z,8.40
2018-07-16T01:24:28.407Z,8.20
2018-07-16T01:26:56.798Z,8.33
2018-07-16T01:29:25.194Z,8.60
2018-07-16T01:31:53.656Z,8.90
2018-07-16T01:34:21.910Z,8.43
2018-07-16T01:36:50.343Z,8.30
2018-07-16T01:39:18.914Z,9.13
2018-07-16T01:41:47.064Z,8.53
2018-07-16T01:44:15.530Z,8.67
2018-07-16T01:46:43.914Z,8.37
2018-07-16T01:49:12.372Z,8.70
2018-07-16T01:51:40.784Z,8.63
2018-07-16T01:54:09.158Z,8.80
2018-07-16T01:56:37.544Z,9.73
2018-07-16T01:59:05.990Z,8.60
2018-07-16T02:01:34.406Z,8.23
2018-07-16T02:04:02.895Z,8.30
2018-07-16T02:06:31.252Z,11.20
2018-07-16T02:08:59.682Z,8.57
2018-07-16T02:11:28.154Z,8.20
2018-07-16T02:13:56.416Z,8.63
2018-07-16T02:16:24.720Z,9.20
2018-07-16T02:18:53.051Z,8.50
2018-07-16T02:21:21.400Z,10.13
2018-07-16T02:23:49.762Z,10.00
2018-07-16T02:26:18.078Z,8.47
2018-07-16T02:28:46.508Z,8.47
2018-07-16T02:31:14.906Z,8.73
2018-07-16T02:33:43.320Z,8.30
2018-07-16T02:36:11.883Z,8.07
2018-07-16T02:38:40.267Z,8.50
2018-07-16T02:41:08.727Z,8.73
2018-07-16T02:43:37.086Z,8.57
2018-07-16T02:46:05.573Z,8.77
2018-07-16T02:48:33.928Z,8.50
2018-07-16T02:51:02.239Z,7.97
2018-07-16T02:53:30.736Z,8.40
2018-07-16T02:55:59.107Z,8.47
2018-07-16T02:58:27.478Z,8.70
2018-07-16T03:00:55.840Z,8.47
2018-07-16T03:03:24.201Z,8.20
2018-07-16T03:05:52.495Z,8.70
2018-07-16T03:08:20.961Z,8.73
2018-07-16T03:10:49.217Z,10.33
2018-07-16T03:13:17.719Z,8.97
2018-07-16T03:15:46.203Z,8.93
2018-07-16T03:18:14.576Z,12.30
2018-07-16T03:20:42.944Z,9.37
2018-07-16T03:23:11.399Z,8.63
2018-07-16T03:25:39.769Z,7.73
2018-07-16T03:28:12.351Z,8.23
2018-07-16T03:30:40.792Z,8.60
2018-07-16T03:33:08.919Z,8.20
2018-07-16T03:35:37.311Z,8.93
2018-07-16T03:38:05.647Z,8.63
2018-07-16T03:40:34.027Z,8.30
2018-07-16T03:43:02.474Z,8.93
2018-07-16T03:45:30.851Z,8.97
2018-07-16T03:47:59.326Z,10.07
2018-07-16T03:50:27.803Z,9.73
2018-07-16T03:52:56.287Z,8.73
2018-07-16T03:55:24.568Z,9.63
2018-07-16T03:57:53.002Z,9.17
2018-07-16T04:00:21.784Z,9.40
2018-07-16T04:02:50.179Z,9.43
2018-07-16T04:05:18.702Z,9.07
2018-07-16T04:07:47.072Z,9.80
2018-07-16T04:10:15.441Z,10.97
2018-07-16T04:12:43.824Z,9.83
2018-07-16T04:15:12.352Z,8.63
2018-07-16T04:17:40.738Z,9.67
2018-07-16T04:20:09.222Z,9.33
2018-07-16T04:22:37.294Z,9.40
2018-07-16T04:25:05.426Z,9.80
2018-07-16T04:27:33.916Z,10.80
2018-07-16T04:30:02.188Z,9.27
2018-07-16T04:32:30.629Z,8.67
2018-07-16T04:34:58.980Z,10.40
2018-07-16T04:37:27.372Z,9.97
2018-07-16T04:39:55.733Z,8.60
2018-07-16T04:42:24.084Z,8.60
2018-07-16T04:44:52.482Z,8.43
2018-07-16T04:47:20.852Z,8.83
2018-07-16T04:49:49.143Z,7.17
2018-07-16T04:52:17.556Z,7.17
2018-07-16T04:54:45.994Z,6.37
2018-07-16T04:57:14.499Z,6.73
2018-07-16T04:59:42.899Z,6.23
2018-07-16T05:02:11.395Z,5.43
2018-07-16T05:04:39.810Z,5.27
2018-07-16T05:07:08.212Z,5.83
2018-07-16T05:09:36.589Z,5.50
2018-07-16T05:12:05.046Z,5.60
2018-07-16T05:14:47.164Z,5.30
2018-07-16T05:17:15.617Z,5.67
2018-07-16T05:19:43.923Z,5.00
2018-07-16T05:22:12.289Z,5.00
2018-07-16T05:24:40.535Z,5.00
2018-07-16T05:27:08.819Z,4.70
2018-07-16T05:29:37.307Z,6.87
2018-07-16T05:32:05.740Z,5.10
2018-07-16T05:34:33.939Z,5.30
2018-07-16T05:37:02.251Z,5.60
2018-07-16T05:39:30.359Z,5.83
2018-07-16T05:41:58.789Z,6.27
2018-07-16T05:44:27.361Z,5.97
2018-07-16T05:46:55.668Z,6.63
2018-07-16T05:49:24.092Z,5.90
2018-07-16T05:51:52.504Z,5.80
2018-07-16T05:54:20.926Z,5.70
2018-07-16T05:56:49.251Z,5.60
2018-07-16T05:59:17.637Z,6.37
2018-07-16T06:01:46.287Z,6.10
2018-07-16T06:04:14.623Z,5.73
2018-07-16T06:06:43.080Z,7.20
2018-07-16T06:09:11.544Z,6.47
2018-07-16T06:11:39.883Z,6.80
2018-07-16T06:14:15.718Z,6.60
2018-07-16T06:16:44.126Z,6.90
2018-07-16T06:19:12.349Z,9.83
2018-07-16T06:21:40.818Z,8.87
2018-07-16T06:24:09.313Z,9.07
2018-07-16T06:26:37.671Z,7.60
2018-07-16T06:29:05.956Z,6.20
2018-07-16T06:31:34.426Z,7.77
2018-07-16T06:34:03.111Z,6.93
2018-07-16T06:36:31.241Z,6.97
2018-07-16T06:38:59.583Z,7.60
2018-07-16T06:41:28.369Z,7.00
2018-07-16T06:43:56.338Z,8.73
2018-07-16T06:46:24.751Z,7.97
2018-07-16T06:48:53.039Z,8.77
2018-07-16T06:51:21.468Z,8.07
2018-07-16T06:53:49.878Z,9.03
2018-07-16T06:56:18.327Z,7.97
2018-07-16T06:58:46.712Z,8.10
2018-07-16T07:01:15.280Z,8.50
2018-07-16T07:03:43.632Z,8.03
2018-07-16T07:06:12.184Z,8.67
2018-07-16T07:08:40.552Z,8.40
2018-07-16T07:11:15.251Z,9.20
2018-07-16T07:13:43.760Z,8.50
2018-07-16T07:16:12.195Z,9.40
2018-07-16T07:18:40.674Z,8.27
2018-07-16T07:21:09.083Z,9.13
2018-07-16T07:23:37.387Z,8.83
2018-07-16T07:26:05.759Z,9.20
2018-07-16T07:28:34.206Z,9.43
2018-07-16T07:31:02.504Z,9.40
2018-07-16T07:33:30.966Z,9.07
2018-07-16T07:35:59.390Z,8.67
2018-07-16T07:38:27.715Z,9.50
2018-07-16T07:40:56.067Z,10.00
2018-07-16T07:43:24.464Z,8.80
2018-07-16T07:45:52.871Z,8.40
2018-07-16T07:48:21.144Z,8.60
2018-07-16T07:50:49.671Z,10.90
2018-07-16T07:53:18.016Z,8.60
2018-07-16T07:55:46.418Z,8.43
2018-07-16T07:58:14.459Z,8.30
2018-07-16T08:00:42.864Z,8.57
2018-07-16T08:03:11.286Z,9.50
2018-07-16T08:05:39.641Z,10.60
2018-07-16T08:08:08.086Z,7.40
2018-07-16T08:10:36.552Z,8.57
2018-07-16T08:13:04.920Z,8.83
2018-07-16T08:15:33.282Z,7.90
2018-07-16T08:18:01.773Z,10.70
2018-07-16T08:20:30.127Z,7.57
2018-07-16T08:22:58.508Z,7.57
2018-07-16T08:25:26.875Z,8.43
2018-07-16T08:27:55.307Z,10.30
2018-07-16T08:30:23.771Z,9.23
2018-07-16T08:32:52.111Z,10.83
2018-07-16T08:35:20.764Z,8.87
2018-07-16T08:37:49.462Z,7.93
2018-07-16T08:40:18.149Z,7.63
2018-07-16T08:42:46.523Z,8.30
2018-07-16T08:45:14.955Z,7.37
2018-07-16T08:47:43.336Z,8.83
2018-07-16T08:50:11.752Z,8.40
2018-07-16T08:52:40.225Z,9.40
2018-07-16T08:55:08.552Z,8.77
2018-07-16T08:57:38.167Z,6.30
2018-07-16T09:00:06.928Z,8.47
2018-07-16T09:02:36.875Z,6.43
2018-07-16T09:05:05.459Z,6.20
2018-07-16T09:07:34.246Z,5.83
2018-07-16T09:10:03.179Z,5.93
2018-07-16T09:12:31.595Z,6.10
2018-07-16T09:15:38.884Z,9.77
2018-07-16T09:18:07.407Z,6.97
2018-07-16T09:20:35.882Z,6.93
2018-07-16T09:23:04.303Z,7.80
2018-07-16T09:25:32.689Z,6.77
2018-07-16T09:28:01.072Z,6.75
2018-07-16T09:30:36.271Z,7.13
2018-07-16T09:33:04.632Z,6.33
2018-07-16T09:35:33.120Z,5.87
2018-07-16T09:38:01.517Z,7.17
2018-07-16T09:40:29.972Z,5.53
2018-07-16T09:42:58.336Z,7.63
2018-07-16T09:45:26.768Z,6.90
2018-07-16T09:47:55.257Z,5.80
2018-07-16T09:50:23.971Z,5.83
2018-07-16T09:52:52.395Z,6.37
2018-07-16T09:55:21.131Z,6.43
2018-07-16T09:57:49.493Z,6.20
2018-07-16T10:00:23.497Z,5.97
2018-07-16T10:02:51.811Z,5.40
2018-07-16T10:05:20.286Z,5.47
2018-07-16T10:07:49.003Z,5.20
2018-07-16T10:10:17.523Z,4.90
2018-07-16T10:12:45.905Z,4.95
2018-07-16T10:15:49.680Z,6.70
2018-07-16T10:18:18.031Z,10.28
2018-07-16T10:20:46.360Z,7.67
2018-07-16T10:23:14.842Z,7.22
2018-07-16T10:25:43.276Z,5.35
2018-07-16T10:28:11.671Z,5.67
2018-07-16T10:30:40.120Z,6.53
2018-07-16T10:33:08.356Z,5.73
2018-07-16T10:35:36.658Z,8.53
2018-07-16T10:38:05.224Z,7.93
2018-07-16T10:40:33.600Z,6.63
2018-07-16T10:43:01.923Z,5.10
2018-07-16T10:45:30.375Z,6.05
2018-07-16T10:47:58.784Z,7.67
2018-07-16T10:50:27.102Z,8.00
2018-07-16T10:52:55.508Z,8.43
2018-07-16T10:55:24.179Z,7.75
2018-07-16T10:57:52.322Z,8.75
2018-07-16T11:00:20.906Z,7.20
2018-07-16T11:02:49.283Z,6.87
2018-07-16T11:05:17.696Z,6.50
2018-07-16T11:07:45.959Z,6.83
2018-07-16T11:10:14.459Z,5.30
2018-07-16T11:12:42.906Z,5.75
2018-07-16T11:18:22.888Z,5.80
2018-07-16T11:21:54.559Z,5.28
2018-07-16T11:24:23.052Z,4.90
2018-07-16T11:26:51.463Z,5.30
2018-07-16T11:29:20.047Z,5.07
2018-07-16T11:31:48.440Z,5.78
2018-07-16T11:34:16.989Z,6.00
2018-07-16T11:36:45.357Z,5.33
2018-07-16T11:39:13.736Z,5.10
2018-07-16T11:41:42.139Z,4.95
2018-07-16T11:44:10.488Z,5.50
2018-07-16T11:46:38.799Z,5.87
2018-07-16T11:49:07.255Z,4.85
2018-07-16T11:51:35.676Z,7.42
2018-07-16T11:54:04.118Z,8.25
2018-07-16T11:56:32.395Z,4.65
2018-07-16T11:59:00.881Z,4.12
2018-07-16T12:01:29.267Z,4.53
2018-07-16T12:03:57.644Z,4.55
2018-07-16T12:06:25.904Z,2.98
2018-07-16T12:08:55.511Z,4.47
2018-07-16T12:11:23.958Z,4.28
2018-07-16T12:13:52.707Z,3.63
2018-07-16T12:16:26.383Z,4.17
2018-07-16T12:18:54.700Z,4.05
2018-07-16T12:21:23.088Z,3.35
2018-07-16T12:23:51.480Z,4.92
2018-07-16T12:26:19.875Z,5.08
2018-07-16T12:28:48.283Z,4.42
2018-07-16T12:31:16.540Z,3.67
2018-07-16T12:33:44.979Z,3.65
2018-07-16T12:36:13.382Z,4.35
2018-07-16T12:38:41.767Z,3.75
2018-07-16T12:41:10.551Z,4.60
2018-07-16T12:43:38.991Z,4.20
2018-07-16T12:46:07.331Z,3.58
2018-07-16T12:48:35.795Z,3.40
2018-07-16T12:51:04.116Z,5.65
2018-07-16T12:53:32.533Z,5.40
2018-07-16T12:56:01.123Z,5.33
2018-07-16T12:58:29.433Z,5.65
2018-07-16T13:00:57.846Z,3.95
2018-07-16T13:03:26.319Z,3.52
2018-07-16T13:05:54.672Z,4.35
2018-07-16T13:08:23.119Z,5.22
2018-07-16T13:10:51.507Z,4.35
2018-07-16T13:13:20.000Z,3.65
2018-07-16T13:16:24.958Z,3.25
2018-07-16T13:18:53.322Z,3.40
2018-07-16T13:21:21.655Z,5.03
2018-07-16T13:23:50.042Z,3.87
2018-07-16T13:26:18.531Z,5.83
2018-07-16T13:28:46.908Z,3.50
2018-07-16T13:31:15.263Z,3.85
2018-07-16T13:33:43.613Z,5.30
2018-07-16T13:36:12.053Z,5.78
2018-07-16T13:38:40.444Z,6.00
2018-07-16T13:41:08.820Z,6.22
2018-07-16T13:43:37.234Z,5.00
2018-07-16T13:46:05.916Z,5.08
2018-07-16T13:48:34.335Z,3.17
2018-07-16T13:51:02.438Z,3.30
2018-07-16T13:53:30.815Z,3.58
2018-07-16T13:55:59.136Z,3.95
2018-07-16T13:58:27.614Z,3.83
2018-07-16T14:00:55.968Z,6.58
2018-07-16T14:03:24.327Z,3.27
2018-07-16T14:05:52.771Z,4.55
2018-07-16T14:08:21.192Z,6.17
2018-07-16T14:10:49.538Z,4.28
2018-07-16T14:13:17.951Z,3.45
2018-07-16T14:19:06.182Z,4.35
2018-07-16T14:21:34.695Z,3.80
2018-07-16T14:24:03.118Z,4.37
2018-07-16T14:26:31.455Z,3.80
2018-07-16T14:28:59.900Z,3.98
2018-07-16T14:31:28.382Z,3.95
2018-07-16T14:33:56.784Z,3.17
2018-07-16T14:36:25.247Z,3.75
2018-07-16T14:38:53.528Z,5.25
2018-07-16T14:41:21.867Z,4.65
2018-07-16T14:43:49.889Z,4.62
2018-07-16T14:46:18.240Z,4.25
2018-07-16T14:48:46.642Z,4.55
2018-07-16T14:51:15.212Z,4.03
2018-07-16T14:53:43.494Z,3.40
2018-07-16T14:56:12.002Z,5.05
2018-07-16T14:58:40.486Z,4.55
2018-07-16T15:01:08.968Z,4.75
2018-07-16T15:03:37.348Z,4.20
2018-07-16T15:06:05.958Z,3.92
2018-07-16T15:08:34.481Z,3.50
2018-07-16T15:11:02.711Z,4.00
2018-07-16T15:13:31.085Z,4.22
2018-07-16T15:19:26.607Z,4.28
2018-07-16T15:21:55.176Z,4.28
2018-07-16T15:24:23.534Z,4.15
2018-07-16T15:26:51.985Z,4.50
2018-07-16T15:29:20.370Z,3.30
2018-07-16T15:31:48.771Z,5.92
2018-07-16T15:34:17.112Z,3.15
2018-07-16T15:36:45.535Z,2.90
2018-07-16T15:39:13.952Z,4.08
2018-07-16T15:41:42.354Z,3.33
2018-07-16T15:44:10.636Z,2.98
2018-07-16T15:46:38.972Z,3.58
2018-07-16T15:49:07.472Z,3.45
2018-07-16T15:51:35.798Z,3.85
2018-07-16T15:54:04.135Z,4.05
2018-07-16T15:56:32.616Z,2.92
2018-07-16T15:59:00.971Z,4.10
2018-07-16T16:01:29.450Z,5.30
2018-07-16T16:03:57.522Z,5.10
2018-07-16T16:06:25.934Z,3.10
2018-07-16T16:08:54.391Z,3.85
2018-07-16T16:11:23.431Z,3.00
2018-07-16T16:13:51.751Z,4.05
2018-07-16T16:19:38.468Z,4.50
2018-07-16T16:22:06.779Z,6.05
2018-07-16T16:24:35.107Z,3.90
2018-07-16T16:27:03.491Z,5.22
2018-07-16T16:29:31.963Z,9.98
2018-07-16T16:32:00.387Z,19.95
2018-07-16T16:34:28.785Z,35.68
2018-07-16T16:36:57.337Z,48.23
2018-07-16T16:39:25.842Z,33.15
2018-07-16T16:41:54.252Z,20.35
2018-07-16T16:44:22.674Z,15.18
2018-07-16T16:46:51.126Z,14.13
2018-07-16T16:49:19.688Z,9.13
2018-07-16T16:51:47.914Z,6.42
2018-07-16T16:54:16.334Z,5.50
2018-07-16T16:56:44.773Z,6.00
2018-07-16T16:59:13.279Z,12.23
2018-07-16T17:01:41.695Z,4.97
2018-07-16T17:04:10.060Z,6.03
2018-07-16T17:06:38.400Z,5.97
2018-07-16T17:09:07.332Z,3.77
2018-07-16T17:11:35.823Z,7.63
2018-07-16T17:14:04.248Z,5.63
2018-07-16T17:17:26.424Z,6.30
2018-07-16T17:19:54.835Z,5.13
2018-07-16T17:22:23.224Z,7.03
2018-07-16T17:24:51.469Z,3.07
2018-07-16T17:27:19.821Z,6.90
2018-07-16T17:29:48.283Z,5.40
2018-07-16T17:32:16.775Z,3.30
2018-07-16T17:34:45.270Z,4.80
2018-07-16T17:37:13.615Z,5.90
2018-07-16T17:39:42.037Z,4.20
2018-07-16T17:42:10.421Z,5.33
2018-07-16T17:44:38.809Z,2.60
2018-07-16T17:47:07.136Z,5.17
2018-07-16T17:49:35.608Z,3.00
2018-07-16T17:52:04.028Z,4.43
2018-07-16T17:54:32.389Z,6.70
2018-07-16T17:57:00.678Z,6.57
2018-07-16T17:59:29.052Z,8.40
2018-07-16T18:01:57.528Z,6.50
2018-07-16T18:04:25.969Z,4.90
2018-07-16T18:06:54.460Z,4.03
2018-07-16T18:09:22.948Z,5.90
2018-07-16T18:11:51.335Z,3.63
2018-07-16T18:14:46.425Z,4.57
2018-07-16T18:17:40.236Z,6.07
2018-07-16T18:20:08.942Z,5.43
2018-07-16T18:22:38.080Z,4.57
2018-07-16T18:25:06.802Z,5.47
2018-07-16T18:27:35.355Z,6.10
2018-07-16T18:30:04.035Z,4.70
2018-07-16T18:32:32.783Z,3.40
2018-07-16T18:35:01.522Z,4.67
2018-07-16T18:37:30.119Z,3.60
2018-07-16T18:39:58.836Z,5.63
2018-07-16T18:42:27.278Z,4.73
2018-07-16T18:44:56.003Z,4.50
2018-07-16T18:47:24.798Z,5.43
2018-07-16T18:49:53.383Z,4.97
2018-07-16T18:52:22.339Z,4.40
2018-07-16T18:54:51.503Z,4.40
2018-07-16T18:57:20.551Z,5.80
2018-07-16T18:59:49.662Z,3.93
2018-07-16T19:02:18.875Z,4.77
2018-07-16T19:04:47.963Z,9.93
2018-07-16T19:07:19.748Z,8.37
2018-07-16T19:09:48.283Z,6.93
2018-07-16T19:12:17.548Z,6.67
2018-07-16T19:15:29.665Z,6.00
2018-07-16T19:18:06.719Z,6.90
2018-07-16T19:20:35.779Z,5.57
2018-07-16T19:23:04.868Z,7.03
2018-07-16T19:25:34.020Z,8.57
2018-07-16T19:28:03.243Z,7.37
2018-07-16T19:30:33.007Z,10.13
2018-07-16T19:33:02.243Z,9.17
2018-07-16T19:35:31.448Z,10.83
2018-07-16T19:38:00.022Z,9.63
2018-07-16T19:40:29.585Z,5.83
2018-07-16T19:42:58.805Z,7.07
2018-07-16T19:45:28.009Z,5.60
2018-07-16T19:47:57.239Z,7.77
2018-07-16T19:50:26.416Z,6.17
2018-07-16T19:52:55.669Z,6.70
2018-07-16T19:55:24.828Z,5.37
2018-07-16T19:57:54.020Z,6.70
2018-07-16T20:00:23.828Z,9.20
2018-07-16T20:02:53.208Z,6.23
2018-07-16T20:05:22.438Z,7.43
2018-07-16T20:07:51.098Z,7.33
2018-07-16T20:10:20.605Z,5.43
2018-07-16T20:12:49.746Z,7.33
2018-07-16T20:18:38.727Z,6.50
2018-07-16T20:21:07.907Z,5.83
2018-07-16T20:23:37.096Z,6.70
2018-07-16T20:26:37.973Z,9.30
2018-07-16T20:29:09.627Z,10.77
2018-07-16T20:31:38.750Z,8.80
2018-07-16T20:34:08.711Z,8.40
2018-07-16T20:36:37.871Z,7.10
2018-07-16T20:39:08.379Z,9.00
2018-07-16T20:41:37.511Z,7.60
2018-07-16T20:44:06.846Z,6.87
2018-07-16T20:46:37.030Z,4.47
2018-07-16T20:49:06.036Z,5.70
2018-07-16T20:51:34.955Z,4.50
2018-07-16T20:54:04.067Z,6.03
2018-07-16T20:56:33.017Z,4.90
2018-07-16T20:59:01.703Z,6.40
2018-07-16T21:01:30.279Z,5.03
2018-07-16T21:03:58.976Z,6.43
2018-07-16T21:06:27.380Z,7.83
2018-07-16T21:08:55.891Z,8.13
2018-07-16T21:11:24.338Z,5.00
2018-07-16T21:13:52.894Z,4.33
2018-07-16T21:19:44.152Z,5.17
2018-07-16T21:22:12.595Z,5.87
2018-07-16T21:24:41.099Z,5.13
2018-07-16T21:27:09.478Z,4.30
2018-07-16T21:29:37.824Z,7.23
2018-07-16T21:32:06.206Z,4.30
2018-07-16T21:34:34.719Z,4.23
2018-07-16T21:37:03.362Z,5.17
2018-07-16T21:39:31.708Z,8.00
2018-07-16T21:42:00.196Z,5.97
2018-07-16T21:44:28.560Z,5.77
2018-07-16T21:46:56.906Z,5.67
2018-07-16T21:49:31.983Z,6.23
2018-07-16T21:52:00.495Z,8.63
2018-07-16T21:54:38.398Z,6.60
2018-07-16T21:57:07.077Z,5.37
2018-07-16T21:59:35.467Z,7.87
2018-07-16T22:02:03.906Z,6.80
2018-07-16T22:04:32.890Z,7.43
2018-07-16T22:07:05.233Z,4.63
2018-07-16T22:09:33.742Z,6.53
2018-07-16T22:12:02.083Z,7.40
2018-07-16T22:14:30.553Z,4.07
2018-07-16T22:16:59.076Z,12.60
2018-07-16T22:19:27.468Z,11.73
2018-07-16T22:21:55.851Z,10.90
2018-07-16T22:24:24.468Z,8.67
2018-07-16T22:26:52.887Z,7.73
2018-07-16T22:29:21.227Z,11.13
2018-07-16T22:31:49.724Z,7.67
2018-07-16T22:34:18.230Z,6.93
2018-07-16T22:36:46.558Z,5.57
2018-07-16T22:39:14.959Z,5.97
2018-07-16T22:41:43.406Z,6.77
2018-07-16T22:44:11.699Z,4.90
2018-07-16T22:46:40.073Z,6.83
2018-07-16T22:49:08.491Z,2.47
2018-07-16T22:51:36.900Z,4.37
2018-07-16T22:54:05.419Z,3.23
2018-07-16T22:56:33.728Z,3.43
2018-07-16T22:59:02.141Z,3.60
2018-07-16T23:01:30.451Z,3.93
2018-07-16T23:03:58.899Z,5.60
2018-07-16T23:06:27.268Z,4.30
2018-07-16T23:08:55.774Z,5.07
2018-07-16T23:11:24.096Z,4.10
2018-07-16T23:13:52.163Z,4.30
2018-07-16T23:16:20.403Z,4.93
2018-07-16T23:18:48.860Z,5.33
2018-07-16T23:21:17.240Z,5.47
2018-07-16T23:23:45.550Z,3.63
2018-07-16T23:26:13.887Z,6.03
2018-07-16T23:28:42.211Z,4.30
2018-07-16T23:31:10.551Z,6.57
2018-07-16T23:33:38.919Z,5.30
2018-07-16T23:36:07.280Z,6.00
2018-07-16T23:38:35.647Z,5.73
2018-07-16T23:41:04.079Z,3.70
2018-07-16T23:43:32.528Z,5.67
2018-07-16T23:46:00.991Z,5.33
2018-07-16T23:48:29.318Z,7.07
2018-07-16T23:50:57.334Z,7.03
2018-07-16T23:53:25.824Z,5.57
2018-07-16T23:55:54.311Z,5.03
2018-07-16T23:58:22.699Z,3.43
